sensor_id;sensor_type;location;lat;lon;timestamp;P1;durP1;ratioP1;P2;durP2;ratioP2
56429;SDS011;42332;52.136;20.666;2023-05-10T00:00:04;18.95;;;7.95;;
56429;SDS011;42332;52.136;20.666;2023-05-10T00:02:30;15.75;;;6.53;;
56429;SDS011;42332;52.136;20.666;2023-05-10T00:04:55;16.55;;;6.82;;
56429;SDS011;42332;52.136;20.666;2023-05-10T00:07:20;21.20;;;6.72;;
56429;SDS011;42332;52.136;20.666;2023-05-10T00:09:46;17.17;;;6.35;;
56429;SDS011;42332;52.136;20.666;2023-05-10T00:12:11;21.00;;;6.50;;
56429;SDS011;42332;52.136;20.666;2023-05-10T00:14:37;14.38;;;6.18;;
56429;SDS011;42332;52.136;20.666;2023-05-10T00:17:02;23.77;;;6.95;;
56429;SDS011;42332;52.136;20.666;2023-05-10T00:19:27;16.52;;;6.90;;
56429;SDS011;42332;52.136;20.666;2023-05-10T00:21:53;15.57;;;5.95;;
56429;SDS011;42332;52.136;20.666;2023-05-10T00:24:18;16.77;;;6.57;;
56429;SDS011;42332;52.136;20.666;2023-05-10T00:26:43;19.35;;;6.32;;
56429;SDS011;42332;52.136;20.666;2023-05-10T00:29:09;13.45;;;5.68;;
56429;SDS011;42332;52.136;20.666;2023-05-10T00:31:34;22.02;;;6.40;;
56429;SDS011;42332;52.136;20.666;2023-05-10T00:33:59;17.67;;;6.43;;
56429;SDS011;42332;52.136;20.666;2023-05-10T00:36:25;17.20;;;6.82;;
56429;SDS011;42332;52.136;20.666;2023-05-10T00:38:51;23.55;;;7.07;;
56429;SDS011;42332;52.136;20.666;2023-05-10T00:41:16;17.85;;;7.07;;
56429;SDS011;42332;52.136;20.666;2023-05-10T00:43:41;14.98;;;6.70;;
56429;SDS011;42332;52.136;20.666;2023-05-10T00:46:07;19.25;;;6.28;;
56429;SDS011;42332;52.136;20.666;2023-05-10T00:48:32;17.23;;;6.47;;
56429;SDS011;42332;52.136;20.666;2023-05-10T00:50:58;18.85;;;7.03;;
56429;SDS011;42332;52.136;20.666;2023-05-10T00:53:23;18.48;;;6.07;;
56429;SDS011;42332;52.136;20.666;2023-05-10T00:55:49;15.85;;;6.45;;
56429;SDS011;42332;52.136;20.666;2023-05-10T00:58:14;13.98;;;6.00;;
56429;SDS011;42332;52.136;20.666;2023-05-10T01:00:41;14.25;;;6.22;;
56429;SDS011;42332;52.136;20.666;2023-05-10T01:03:07;14.82;;;5.82;;
56429;SDS011;42332;52.136;20.666;2023-05-10T01:05:32;11.98;;;5.30;;
56429;SDS011;42332;52.136;20.666;2023-05-10T01:07:57;12.95;;;5.75;;
56429;SDS011;42332;52.136;20.666;2023-05-10T01:10:23;11.52;;;5.88;;
56429;SDS011;42332;52.136;20.666;2023-05-10T01:12:48;13.30;;;6.20;;
56429;SDS011;42332;52.136;20.666;2023-05-10T01:15:14;17.88;;;5.60;;
56429;SDS011;42332;52.136;20.666;2023-05-10T01:17:40;16.33;;;5.65;;
56429;SDS011;42332;52.136;20.666;2023-05-10T01:20:07;17.20;;;5.55;;
56429;SDS011;42332;52.136;20.666;2023-05-10T01:33:23;19.00;;;6.35;;
56429;SDS011;42332;52.136;20.666;2023-05-10T01:36:48;17.98;;;5.28;;
56429;SDS011;42332;52.136;20.666;2023-05-10T01:39:01;12.18;;;5.13;;
56429;SDS011;42332;52.136;20.666;2023-05-10T01:44:16;18.90;;;5.50;;
56429;SDS011;42332;52.136;20.666;2023-05-10T01:46:47;15.82;;;5.25;;
56429;SDS011;42332;52.136;20.666;2023-05-10T01:49:24;14.65;;;6.03;;
56429;SDS011;42332;52.136;20.666;2023-05-10T01:51:51;11.65;;;5.65;;
56429;SDS011;42332;52.136;20.666;2023-05-10T01:54:20;14.30;;;5.63;;
56429;SDS011;42332;52.136;20.666;2023-05-10T01:56:55;11.90;;;5.57;;
56429;SDS011;42332;52.136;20.666;2023-05-10T01:59:24;13.63;;;6.32;;
56429;SDS011;42332;52.136;20.666;2023-05-10T02:01:53;16.50;;;6.50;;
56429;SDS011;42332;52.136;20.666;2023-05-10T02:04:19;18.85;;;6.70;;
56429;SDS011;42332;52.136;20.666;2023-05-10T02:06:46;14.52;;;6.53;;
56429;SDS011;42332;52.136;20.666;2023-05-10T02:09:13;18.15;;;6.47;;
56429;SDS011;42332;52.136;20.666;2023-05-10T02:11:39;17.95;;;7.35;;
56429;SDS011;42332;52.136;20.666;2023-05-10T02:14:07;14.73;;;6.32;;
56429;SDS011;42332;52.136;20.666;2023-05-10T02:16:34;17.10;;;6.03;;
56429;SDS011;42332;52.136;20.666;2023-05-10T02:19:00;16.02;;;6.20;;
56429;SDS011;42332;52.136;20.666;2023-05-10T02:21:26;17.60;;;7.10;;
56429;SDS011;42332;52.136;20.666;2023-05-10T02:23:53;18.58;;;6.38;;
56429;SDS011;42332;52.136;20.666;2023-05-10T02:26:19;17.42;;;6.28;;
56429;SDS011;42332;52.136;20.666;2023-05-10T02:28:46;18.92;;;6.80;;
56429;SDS011;42332;52.136;20.666;2023-05-10T02:31:12;17.23;;;6.57;;
56429;SDS011;42332;52.136;20.666;2023-05-10T02:33:38;11.82;;;5.82;;
56429;SDS011;42332;52.136;20.666;2023-05-10T02:36:05;13.65;;;5.82;;
56429;SDS011;42332;52.136;20.666;2023-05-10T02:38:32;12.88;;;5.18;;
56429;SDS011;42332;52.136;20.666;2023-05-10T02:40:58;14.27;;;5.50;;
56429;SDS011;42332;52.136;20.666;2023-05-10T02:43:24;16.40;;;6.03;;
56429;SDS011;42332;52.136;20.666;2023-05-10T02:45:49;15.98;;;5.88;;
56429;SDS011;42332;52.136;20.666;2023-05-10T02:48:15;16.33;;;5.80;;
56429;SDS011;42332;52.136;20.666;2023-05-10T02:50:42;14.27;;;5.80;;
56429;SDS011;42332;52.136;20.666;2023-05-10T02:53:15;16.20;;;5.75;;
56429;SDS011;42332;52.136;20.666;2023-05-10T02:55:41;12.82;;;5.43;;
56429;SDS011;42332;52.136;20.666;2023-05-10T02:58:11;11.98;;;4.85;;
56429;SDS011;42332;52.136;20.666;2023-05-10T03:00:36;12.88;;;5.35;;
56429;SDS011;42332;52.136;20.666;2023-05-10T03:03:02;13.65;;;4.78;;
56429;SDS011;42332;52.136;20.666;2023-05-10T03:05:27;18.98;;;5.35;;
56429;SDS011;42332;52.136;20.666;2023-05-10T03:07:53;12.35;;;5.10;;
56429;SDS011;42332;52.136;20.666;2023-05-10T03:10:19;11.70;;;5.75;;
56429;SDS011;42332;52.136;20.666;2023-05-10T03:18:08;16.35;;;5.47;;
56429;SDS011;42332;52.136;20.666;2023-05-10T03:20:42;11.68;;;5.65;;
56429;SDS011;42332;52.136;20.666;2023-05-10T03:23:12;19.08;;;5.80;;
56429;SDS011;42332;52.136;20.666;2023-05-10T03:25:44;14.75;;;5.43;;
56429;SDS011;42332;52.136;20.666;2023-05-10T03:28:11;15.48;;;5.78;;
56429;SDS011;42332;52.136;20.666;2023-05-10T03:30:37;14.95;;;6.30;;
56429;SDS011;42332;52.136;20.666;2023-05-10T03:33:06;20.17;;;6.32;;
56429;SDS011;42332;52.136;20.666;2023-05-10T03:35:32;13.48;;;4.95;;
56429;SDS011;42332;52.136;20.666;2023-05-10T03:37:57;16.80;;;6.03;;
56429;SDS011;42332;52.136;20.666;2023-05-10T03:40:23;12.93;;;5.10;;
56429;SDS011;42332;52.136;20.666;2023-05-10T03:42:49;14.35;;;5.93;;
56429;SDS011;42332;52.136;20.666;2023-05-10T03:45:14;13.50;;;5.25;;
56429;SDS011;42332;52.136;20.666;2023-05-10T03:47:40;16.02;;;5.57;;
56429;SDS011;42332;52.136;20.666;2023-05-10T03:50:06;19.20;;;6.55;;
56429;SDS011;42332;52.136;20.666;2023-05-10T03:52:31;16.05;;;5.63;;
56429;SDS011;42332;52.136;20.666;2023-05-10T03:54:57;16.10;;;5.75;;
56429;SDS011;42332;52.136;20.666;2023-05-10T03:57:22;17.00;;;6.00;;
56429;SDS011;42332;52.136;20.666;2023-05-10T03:59:47;21.58;;;6.57;;
56429;SDS011;42332;52.136;20.666;2023-05-10T04:02:13;19.48;;;5.90;;
56429;SDS011;42332;52.136;20.666;2023-05-10T04:04:38;20.08;;;5.57;;
56429;SDS011;42332;52.136;20.666;2023-05-10T04:07:03;18.95;;;6.25;;
56429;SDS011;42332;52.136;20.666;2023-05-10T04:09:29;15.88;;;5.75;;
56429;SDS011;42332;52.136;20.666;2023-05-10T04:11:54;15.82;;;5.30;;
56429;SDS011;42332;52.136;20.666;2023-05-10T04:14:20;13.48;;;5.25;;
56429;SDS011;42332;52.136;20.666;2023-05-10T04:16:45;14.48;;;5.45;;
56429;SDS011;42332;52.136;20.666;2023-05-10T04:19:10;15.18;;;5.65;;
56429;SDS011;42332;52.136;20.666;2023-05-10T04:21:36;13.95;;;5.75;;
56429;SDS011;42332;52.136;20.666;2023-05-10T04:24:01;13.05;;;5.32;;
56429;SDS011;42332;52.136;20.666;2023-05-10T04:26:27;13.40;;;5.65;;
56429;SDS011;42332;52.136;20.666;2023-05-10T04:28:52;22.98;;;5.25;;
56429;SDS011;42332;52.136;20.666;2023-05-10T04:31:17;11.40;;;5.10;;
56429;SDS011;42332;52.136;20.666;2023-05-10T04:33:43;12.85;;;5.38;;
56429;SDS011;42332;52.136;20.666;2023-05-10T04:36:08;13.68;;;5.05;;
56429;SDS011;42332;52.136;20.666;2023-05-10T04:38:34;10.07;;;4.53;;
56429;SDS011;42332;52.136;20.666;2023-05-10T04:41:06;11.45;;;4.53;;
56429;SDS011;42332;52.136;20.666;2023-05-10T04:43:34;14.90;;;4.67;;
56429;SDS011;42332;52.136;20.666;2023-05-10T04:45:59;10.00;;;4.55;;
56429;SDS011;42332;52.136;20.666;2023-05-10T04:48:25;14.07;;;4.90;;
56429;SDS011;42332;52.136;20.666;2023-05-10T04:50:50;14.88;;;4.88;;
56429;SDS011;42332;52.136;20.666;2023-05-10T04:53:15;11.27;;;4.90;;
56429;SDS011;42332;52.136;20.666;2023-05-10T04:55:41;14.43;;;5.57;;
56429;SDS011;42332;52.136;20.666;2023-05-10T04:58:06;12.63;;;4.28;;
56429;SDS011;42332;52.136;20.666;2023-05-10T05:00:32;13.45;;;4.45;;
56429;SDS011;42332;52.136;20.666;2023-05-10T05:02:58;14.88;;;4.47;;
56429;SDS011;42332;52.136;20.666;2023-05-10T05:05:23;11.00;;;4.55;;
56429;SDS011;42332;52.136;20.666;2023-05-10T05:07:49;10.63;;;5.32;;
56429;SDS011;42332;52.136;20.666;2023-05-10T05:10:14;10.35;;;4.82;;
56429;SDS011;42332;52.136;20.666;2023-05-10T05:12:39;10.30;;;4.07;;
56429;SDS011;42332;52.136;20.666;2023-05-10T05:15:05;10.25;;;4.10;;
56429;SDS011;42332;52.136;20.666;2023-05-10T05:17:31;11.73;;;4.45;;
56429;SDS011;42332;52.136;20.666;2023-05-10T05:19:56;14.60;;;4.47;;
56429;SDS011;42332;52.136;20.666;2023-05-10T05:22:22;13.45;;;4.55;;
56429;SDS011;42332;52.136;20.666;2023-05-10T05:24:53;13.63;;;4.15;;
56429;SDS011;42332;52.136;20.666;2023-05-10T05:27:21;9.27;;;4.30;;
56429;SDS011;42332;52.136;20.666;2023-05-10T05:29:49;7.55;;;3.63;;
56429;SDS011;42332;52.136;20.666;2023-05-10T05:32:18;15.95;;;4.18;;
56429;SDS011;42332;52.136;20.666;2023-05-10T05:34:46;12.30;;;4.18;;
56429;SDS011;42332;52.136;20.666;2023-05-10T05:37:12;8.68;;;4.03;;
56429;SDS011;42332;52.136;20.666;2023-05-10T05:39:40;13.00;;;4.05;;
56429;SDS011;42332;52.136;20.666;2023-05-10T05:42:07;10.23;;;4.18;;
56429;SDS011;42332;52.136;20.666;2023-05-10T05:44:33;9.18;;;3.90;;
56429;SDS011;42332;52.136;20.666;2023-05-10T05:46:58;15.00;;;3.95;;
56429;SDS011;42332;52.136;20.666;2023-05-10T05:49:23;16.67;;;4.32;;
56429;SDS011;42332;52.136;20.666;2023-05-10T05:51:49;12.38;;;4.00;;
56429;SDS011;42332;52.136;20.666;2023-05-10T05:54:15;9.18;;;4.25;;
56429;SDS011;42332;52.136;20.666;2023-05-10T05:56:40;14.30;;;4.03;;
56429;SDS011;42332;52.136;20.666;2023-05-10T05:59:05;11.25;;;4.22;;
56429;SDS011;42332;52.136;20.666;2023-05-10T06:01:31;8.60;;;3.90;;
56429;SDS011;42332;52.136;20.666;2023-05-10T06:03:56;21.92;;;3.65;;
56429;SDS011;42332;52.136;20.666;2023-05-10T06:06:21;9.18;;;3.70;;
56429;SDS011;42332;52.136;20.666;2023-05-10T06:08:47;9.75;;;4.07;;
56429;SDS011;42332;52.136;20.666;2023-05-10T06:11:12;8.82;;;3.30;;
56429;SDS011;42332;52.136;20.666;2023-05-10T06:13:37;8.90;;;3.55;;
56429;SDS011;42332;52.136;20.666;2023-05-10T06:16:03;11.85;;;3.80;;
56429;SDS011;42332;52.136;20.666;2023-05-10T06:18:28;11.43;;;3.72;;
56429;SDS011;42332;52.136;20.666;2023-05-10T06:20:54;10.70;;;3.63;;
56429;SDS011;42332;52.136;20.666;2023-05-10T06:23:19;12.68;;;3.65;;
56429;SDS011;42332;52.136;20.666;2023-05-10T06:25:44;8.48;;;3.55;;
56429;SDS011;42332;52.136;20.666;2023-05-10T06:28:10;14.90;;;3.08;;
56429;SDS011;42332;52.136;20.666;2023-05-10T06:30:36;7.25;;;2.70;;
56429;SDS011;42332;52.136;20.666;2023-05-10T06:33:01;10.63;;;3.67;;
56429;SDS011;42332;52.136;20.666;2023-05-10T06:35:27;8.25;;;3.42;;
56429;SDS011;42332;52.136;20.666;2023-05-10T06:37:53;10.75;;;3.10;;
56429;SDS011;42332;52.136;20.666;2023-05-10T06:40:18;10.32;;;2.90;;
56429;SDS011;42332;52.136;20.666;2023-05-10T06:42:44;8.10;;;3.03;;
56429;SDS011;42332;52.136;20.666;2023-05-10T06:45:10;9.20;;;3.17;;
56429;SDS011;42332;52.136;20.666;2023-05-10T06:47:36;8.48;;;2.75;;
56429;SDS011;42332;52.136;20.666;2023-05-10T06:50:01;7.03;;;2.58;;
56429;SDS011;42332;52.136;20.666;2023-05-10T06:52:26;12.70;;;3.13;;
56429;SDS011;42332;52.136;20.666;2023-05-10T06:54:52;8.75;;;2.42;;
56429;SDS011;42332;52.136;20.666;2023-05-10T06:57:17;6.20;;;2.85;;
56429;SDS011;42332;52.136;20.666;2023-05-10T06:59:43;6.88;;;2.33;;
56429;SDS011;42332;52.136;20.666;2023-05-10T07:02:08;11.75;;;2.55;;
56429;SDS011;42332;52.136;20.666;2023-05-10T07:04:33;5.70;;;2.50;;
56429;SDS011;42332;52.136;20.666;2023-05-10T07:06:59;8.13;;;2.67;;
56429;SDS011;42332;52.136;20.666;2023-05-10T07:09:24;6.45;;;2.60;;
56429;SDS011;42332;52.136;20.666;2023-05-10T07:11:50;8.60;;;2.50;;
56429;SDS011;42332;52.136;20.666;2023-05-10T07:14:15;7.60;;;2.50;;
56429;SDS011;42332;52.136;20.666;2023-05-10T07:16:40;7.70;;;2.75;;
56429;SDS011;42332;52.136;20.666;2023-05-10T07:19:05;8.18;;;2.47;;
56429;SDS011;42332;52.136;20.666;2023-05-10T07:21:31;5.50;;;2.03;;
56429;SDS011;42332;52.136;20.666;2023-05-10T07:23:57;9.32;;;2.58;;
56429;SDS011;42332;52.136;20.666;2023-05-10T07:26:22;7.85;;;2.75;;
56429;SDS011;42332;52.136;20.666;2023-05-10T07:28:47;4.63;;;1.98;;
56429;SDS011;42332;52.136;20.666;2023-05-10T07:31:13;5.93;;;2.20;;
56429;SDS011;42332;52.136;20.666;2023-05-10T07:33:38;8.35;;;2.30;;
56429;SDS011;42332;52.136;20.666;2023-05-10T07:36:04;6.78;;;2.22;;
56429;SDS011;42332;52.136;20.666;2023-05-10T07:38:29;10.93;;;2.45;;
56429;SDS011;42332;52.136;20.666;2023-05-10T07:40:54;8.73;;;2.10;;
56429;SDS011;42332;52.136;20.666;2023-05-10T07:43:19;7.28;;;2.47;;
56429;SDS011;42332;52.136;20.666;2023-05-10T07:45:45;7.75;;;2.05;;
56429;SDS011;42332;52.136;20.666;2023-05-10T07:48:10;7.35;;;2.35;;
56429;SDS011;42332;52.136;20.666;2023-05-10T07:50:36;11.07;;;1.80;;
56429;SDS011;42332;52.136;20.666;2023-05-10T07:53:01;7.28;;;2.10;;
56429;SDS011;42332;52.136;20.666;2023-05-10T07:55:26;5.90;;;2.10;;
56429;SDS011;42332;52.136;20.666;2023-05-10T07:57:52;8.15;;;1.80;;
56429;SDS011;42332;52.136;20.666;2023-05-10T08:00:18;6.00;;;1.92;;
56429;SDS011;42332;52.136;20.666;2023-05-10T08:02:44;9.48;;;2.35;;
56429;SDS011;42332;52.136;20.666;2023-05-10T08:05:09;8.85;;;2.28;;
56429;SDS011;42332;52.136;20.666;2023-05-10T08:07:35;6.47;;;1.75;;
56429;SDS011;42332;52.136;20.666;2023-05-10T08:10:01;8.98;;;2.08;;
56429;SDS011;42332;52.136;20.666;2023-05-10T08:12:27;3.90;;;1.70;;
56429;SDS011;42332;52.136;20.666;2023-05-10T08:14:52;10.38;;;1.90;;
56429;SDS011;42332;52.136;20.666;2023-05-10T08:17:17;11.30;;;2.33;;
56429;SDS011;42332;52.136;20.666;2023-05-10T08:19:43;4.45;;;1.55;;
56429;SDS011;42332;52.136;20.666;2023-05-10T08:22:08;6.45;;;1.90;;
56429;SDS011;42332;52.136;20.666;2023-05-10T08:24:33;9.05;;;2.45;;
56429;SDS011;42332;52.136;20.666;2023-05-10T08:27:03;3.88;;;1.73;;
56429;SDS011;42332;52.136;20.666;2023-05-10T08:29:28;5.60;;;2.10;;
56429;SDS011;42332;52.136;20.666;2023-05-10T08:31:53;7.90;;;1.58;;
56429;SDS011;42332;52.136;20.666;2023-05-10T08:34:19;6.63;;;2.00;;
56429;SDS011;42332;52.136;20.666;2023-05-10T08:36:45;9.07;;;2.10;;
56429;SDS011;42332;52.136;20.666;2023-05-10T08:39:10;7.05;;;2.38;;
56429;SDS011;42332;52.136;20.666;2023-05-10T08:41:36;11.20;;;1.90;;
56429;SDS011;42332;52.136;20.666;2023-05-10T08:44:04;5.57;;;2.20;;
56429;SDS011;42332;52.136;20.666;2023-05-10T08:46:30;8.88;;;2.10;;
56429;SDS011;42332;52.136;20.666;2023-05-10T08:48:56;5.82;;;2.30;;
56429;SDS011;42332;52.136;20.666;2023-05-10T08:51:23;6.47;;;1.95;;
56429;SDS011;42332;52.136;20.666;2023-05-10T08:53:51;5.65;;;1.80;;
56429;SDS011;42332;52.136;20.666;2023-05-10T08:56:17;10.02;;;2.08;;
56429;SDS011;42332;52.136;20.666;2023-05-10T08:58:42;5.30;;;1.60;;
56429;SDS011;42332;52.136;20.666;2023-05-10T09:01:08;6.15;;;2.00;;
56429;SDS011;42332;52.136;20.666;2023-05-10T09:03:34;6.03;;;1.95;;
56429;SDS011;42332;52.136;20.666;2023-05-10T09:06:00;6.68;;;1.60;;
56429;SDS011;42332;52.136;20.666;2023-05-10T09:08:25;5.22;;;1.90;;
56429;SDS011;42332;52.136;20.666;2023-05-10T09:10:51;6.72;;;2.28;;
56429;SDS011;42332;52.136;20.666;2023-05-10T09:13:18;5.70;;;1.85;;
56429;SDS011;42332;52.136;20.666;2023-05-10T09:15:44;6.10;;;2.22;;
56429;SDS011;42332;52.136;20.666;2023-05-10T09:18:10;4.65;;;1.58;;
56429;SDS011;42332;52.136;20.666;2023-05-10T09:20:35;10.10;;;1.92;;
56429;SDS011;42332;52.136;20.666;2023-05-10T09:23:01;12.20;;;1.85;;
56429;SDS011;42332;52.136;20.666;2023-05-10T09:25:26;6.55;;;2.53;;
56429;SDS011;42332;52.136;20.666;2023-05-10T09:27:51;6.53;;;2.13;;
56429;SDS011;42332;52.136;20.666;2023-05-10T09:30:24;9.45;;;2.03;;
56429;SDS011;42332;52.136;20.666;2023-05-10T09:32:53;7.90;;;1.83;;
56429;SDS011;42332;52.136;20.666;2023-05-10T09:35:23;16.85;;;2.53;;
56429;SDS011;42332;52.136;20.666;2023-05-10T09:37:50;5.20;;;2.10;;
56429;SDS011;42332;52.136;20.666;2023-05-10T09:40:19;9.35;;;2.03;;
56429;SDS011;42332;52.136;20.666;2023-05-10T09:42:56;7.15;;;2.08;;
56429;SDS011;42332;52.136;20.666;2023-05-10T09:45:23;5.03;;;1.80;;
56429;SDS011;42332;52.136;20.666;2023-05-10T09:47:49;5.38;;;1.70;;
56429;SDS011;42332;52.136;20.666;2023-05-10T09:50:15;3.33;;;1.50;;
56429;SDS011;42332;52.136;20.666;2023-05-10T09:58:05;5.50;;;1.83;;
56429;SDS011;42332;52.136;20.666;2023-05-10T10:00:38;6.05;;;1.75;;
56429;SDS011;42332;52.136;20.666;2023-05-10T10:03:05;6.80;;;1.95;;
56429;SDS011;42332;52.136;20.666;2023-05-10T10:05:32;7.55;;;1.77;;
56429;SDS011;42332;52.136;20.666;2023-05-10T10:07:59;20.65;;;1.90;;
56429;SDS011;42332;52.136;20.666;2023-05-10T10:10:26;4.38;;;1.55;;
56429;SDS011;42332;52.136;20.666;2023-05-10T10:12:52;3.83;;;1.52;;
56429;SDS011;42332;52.136;20.666;2023-05-10T10:15:17;7.20;;;1.67;;
56429;SDS011;42332;52.136;20.666;2023-05-10T10:17:43;6.55;;;1.67;;
56429;SDS011;42332;52.136;20.666;2023-05-10T10:20:09;5.78;;;1.67;;
56429;SDS011;42332;52.136;20.666;2023-05-10T10:22:34;4.22;;;1.48;;
56429;SDS011;42332;52.136;20.666;2023-05-10T10:25:01;6.18;;;1.92;;
56429;SDS011;42332;52.136;20.666;2023-05-10T10:35:42;4.57;;;1.45;;
56429;SDS011;42332;52.136;20.666;2023-05-10T10:38:08;8.50;;;2.10;;
56429;SDS011;42332;52.136;20.666;2023-05-10T10:40:34;4.45;;;1.60;;
56429;SDS011;42332;52.136;20.666;2023-05-10T10:43:21;10.90;;;4.00;;
56429;SDS011;42332;52.136;20.666;2023-05-10T10:48:37;7.45;;;2.03;;
56429;SDS011;42332;52.136;20.666;2023-05-10T10:51:03;4.20;;;1.73;;
56429;SDS011;42332;52.136;20.666;2023-05-10T10:53:28;5.68;;;2.15;;
56429;SDS011;42332;52.136;20.666;2023-05-10T10:56:10;8.40;;;1.70;;
56429;SDS011;42332;52.136;20.666;2023-05-10T10:58:37;7.20;;;1.80;;
56429;SDS011;42332;52.136;20.666;2023-05-10T11:01:16;8.30;;;2.13;;
56429;SDS011;42332;52.136;20.666;2023-05-10T11:03:55;4.72;;;1.80;;
56429;SDS011;42332;52.136;20.666;2023-05-10T11:06:42;6.28;;;1.63;;
56429;SDS011;42332;52.136;20.666;2023-05-10T11:09:08;5.85;;;1.65;;
56429;SDS011;42332;52.136;20.666;2023-05-10T11:11:35;25.25;;;2.78;;
56429;SDS011;42332;52.136;20.666;2023-05-10T11:14:04;11.93;;;1.90;;
56429;SDS011;42332;52.136;20.666;2023-05-10T11:16:42;9.23;;;1.77;;
56429;SDS011;42332;52.136;20.666;2023-05-10T11:21:44;4.75;;;1.90;;
56429;SDS011;42332;52.136;20.666;2023-05-10T11:24:14;5.35;;;2.05;;
56429;SDS011;42332;52.136;20.666;2023-05-10T11:26:41;5.45;;;1.40;;
56429;SDS011;42332;52.136;20.666;2023-05-10T11:29:07;7.75;;;2.10;;
56429;SDS011;42332;52.136;20.666;2023-05-10T11:31:32;6.13;;;1.63;;
56429;SDS011;42332;52.136;20.666;2023-05-10T11:33:58;8.18;;;1.77;;
56429;SDS011;42332;52.136;20.666;2023-05-10T11:36:26;9.32;;;2.00;;
56429;SDS011;42332;52.136;20.666;2023-05-10T11:38:53;4.82;;;1.80;;
56429;SDS011;42332;52.136;20.666;2023-05-10T11:41:19;6.95;;;1.55;;
56429;SDS011;42332;52.136;20.666;2023-05-10T11:43:49;4.78;;;1.70;;
56429;SDS011;42332;52.136;20.666;2023-05-10T11:46:15;6.10;;;1.77;;
56429;SDS011;42332;52.136;20.666;2023-05-10T11:48:42;8.10;;;1.85;;
56429;SDS011;42332;52.136;20.666;2023-05-10T11:51:08;9.10;;;1.80;;
56429;SDS011;42332;52.136;20.666;2023-05-10T11:53:34;11.88;;;2.40;;
56429;SDS011;42332;52.136;20.666;2023-05-10T11:56:05;9.45;;;1.77;;
56429;SDS011;42332;52.136;20.666;2023-05-10T11:58:31;5.25;;;1.70;;
56429;SDS011;42332;52.136;20.666;2023-05-10T12:00:57;10.18;;;1.85;;
56429;SDS011;42332;52.136;20.666;2023-05-10T12:03:29;5.80;;;1.80;;
56429;SDS011;42332;52.136;20.666;2023-05-10T12:05:55;7.78;;;2.20;;
56429;SDS011;42332;52.136;20.666;2023-05-10T12:08:21;7.85;;;2.15;;
56429;SDS011;42332;52.136;20.666;2023-05-10T12:10:48;7.15;;;1.70;;
56429;SDS011;42332;52.136;20.666;2023-05-10T12:13:13;8.95;;;1.60;;
56429;SDS011;42332;52.136;20.666;2023-05-10T12:15:40;10.45;;;1.83;;
56429;SDS011;42332;52.136;20.666;2023-05-10T12:18:08;5.35;;;1.77;;
56429;SDS011;42332;52.136;20.666;2023-05-10T12:20:35;6.55;;;1.98;;
56429;SDS011;42332;52.136;20.666;2023-05-10T12:23:00;7.57;;;1.83;;
56429;SDS011;42332;52.136;20.666;2023-05-10T12:25:31;6.45;;;1.85;;
56429;SDS011;42332;52.136;20.666;2023-05-10T12:27:58;10.15;;;2.00;;
56429;SDS011;42332;52.136;20.666;2023-05-10T12:30:28;4.85;;;1.70;;
56429;SDS011;42332;52.136;20.666;2023-05-10T12:33:02;6.80;;;2.33;;
56429;SDS011;42332;52.136;20.666;2023-05-10T12:35:48;7.82;;;1.60;;
56429;SDS011;42332;52.136;20.666;2023-05-10T12:40:55;4.50;;;1.40;;
56429;SDS011;42332;52.136;20.666;2023-05-10T12:43:21;5.68;;;1.83;;
56429;SDS011;42332;52.136;20.666;2023-05-10T12:45:46;7.80;;;1.73;;
56429;SDS011;42332;52.136;20.666;2023-05-10T12:48:13;11.65;;;1.83;;
56429;SDS011;42332;52.136;20.666;2023-05-10T12:50:39;5.32;;;1.65;;
56429;SDS011;42332;52.136;20.666;2023-05-10T12:53:04;5.25;;;1.70;;
56429;SDS011;42332;52.136;20.666;2023-05-10T12:55:30;6.07;;;1.55;;
56429;SDS011;42332;52.136;20.666;2023-05-10T12:57:55;3.50;;;1.65;;
56429;SDS011;42332;52.136;20.666;2023-05-10T13:00:21;6.93;;;1.70;;
56429;SDS011;42332;52.136;20.666;2023-05-10T13:02:46;5.95;;;1.90;;
56429;SDS011;42332;52.136;20.666;2023-05-10T13:05:11;4.95;;;1.80;;
56429;SDS011;42332;52.136;20.666;2023-05-10T13:07:38;8.32;;;1.90;;
56429;SDS011;42332;52.136;20.666;2023-05-10T13:10:04;12.20;;;1.92;;
56429;SDS011;42332;52.136;20.666;2023-05-10T13:12:30;6.20;;;1.90;;
56429;SDS011;42332;52.136;20.666;2023-05-10T13:14:56;6.05;;;1.48;;
56429;SDS011;42332;52.136;20.666;2023-05-10T13:17:21;5.95;;;1.58;;
56429;SDS011;42332;52.136;20.666;2023-05-10T13:19:46;8.02;;;1.60;;
56429;SDS011;42332;52.136;20.666;2023-05-10T13:22:12;6.38;;;2.10;;
56429;SDS011;42332;52.136;20.666;2023-05-10T13:24:37;9.32;;;1.90;;
56429;SDS011;42332;52.136;20.666;2023-05-10T13:27:02;4.57;;;1.65;;
56429;SDS011;42332;52.136;20.666;2023-05-10T13:29:27;5.60;;;2.13;;
56429;SDS011;42332;52.136;20.666;2023-05-10T13:31:53;5.40;;;1.65;;
56429;SDS011;42332;52.136;20.666;2023-05-10T13:34:18;7.57;;;2.00;;
56429;SDS011;42332;52.136;20.666;2023-05-10T13:36:45;4.95;;;1.80;;
56429;SDS011;42332;52.136;20.666;2023-05-10T13:39:11;10.55;;;1.90;;
56429;SDS011;42332;52.136;20.666;2023-05-10T13:41:37;7.63;;;2.17;;
56429;SDS011;42332;52.136;20.666;2023-05-10T13:44:02;10.27;;;2.03;;
56429;SDS011;42332;52.136;20.666;2023-05-10T13:46:28;6.25;;;1.90;;
56429;SDS011;42332;52.136;20.666;2023-05-10T13:48:54;6.00;;;2.30;;
56429;SDS011;42332;52.136;20.666;2023-05-10T13:51:20;5.30;;;2.03;;
56429;SDS011;42332;52.136;20.666;2023-05-10T13:53:45;5.07;;;1.88;;
56429;SDS011;42332;52.136;20.666;2023-05-10T13:56:12;11.18;;;4.25;;
56429;SDS011;42332;52.136;20.666;2023-05-10T13:58:37;12.15;;;3.25;;
56429;SDS011;42332;52.136;20.666;2023-05-10T14:01:03;5.93;;;1.77;;
56429;SDS011;42332;52.136;20.666;2023-05-10T14:03:29;15.75;;;4.43;;
56429;SDS011;42332;52.136;20.666;2023-05-10T14:05:55;17.15;;;4.45;;
56429;SDS011;42332;52.136;20.666;2023-05-10T14:08:20;13.80;;;4.35;;
56429;SDS011;42332;52.136;20.666;2023-05-10T14:10:46;11.05;;;2.15;;
56429;SDS011;42332;52.136;20.666;2023-05-10T14:13:12;5.60;;;1.95;;
56429;SDS011;42332;52.136;20.666;2023-05-10T14:15:37;6.10;;;2.30;;
56429;SDS011;42332;52.136;20.666;2023-05-10T14:18:02;4.07;;;1.90;;
56429;SDS011;42332;52.136;20.666;2023-05-10T14:20:28;6.43;;;1.77;;
56429;SDS011;42332;52.136;20.666;2023-05-10T14:22:53;22.17;;;3.00;;
56429;SDS011;42332;52.136;20.666;2023-05-10T14:25:19;9.23;;;2.25;;
56429;SDS011;42332;52.136;20.666;2023-05-10T14:27:44;8.40;;;1.77;;
56429;SDS011;42332;52.136;20.666;2023-05-10T14:30:10;7.82;;;1.65;;
56429;SDS011;42332;52.136;20.666;2023-05-10T14:32:35;9.93;;;2.08;;
56429;SDS011;42332;52.136;20.666;2023-05-10T14:35:01;9.45;;;2.70;;
56429;SDS011;42332;52.136;20.666;2023-05-10T14:37:27;13.20;;;2.60;;
56429;SDS011;42332;52.136;20.666;2023-05-10T14:39:52;7.88;;;2.85;;
56429;SDS011;42332;52.136;20.666;2023-05-10T14:42:18;6.45;;;2.80;;
56429;SDS011;42332;52.136;20.666;2023-05-10T14:44:44;7.03;;;2.30;;
56429;SDS011;42332;52.136;20.666;2023-05-10T14:47:09;14.10;;;2.00;;
56429;SDS011;42332;52.136;20.666;2023-05-10T14:49:34;6.38;;;1.65;;
56429;SDS011;42332;52.136;20.666;2023-05-10T14:52:00;7.93;;;2.08;;
56429;SDS011;42332;52.136;20.666;2023-05-10T14:54:25;11.18;;;2.20;;
56429;SDS011;42332;52.136;20.666;2023-05-10T14:56:50;4.60;;;1.70;;
56429;SDS011;42332;52.136;20.666;2023-05-10T14:59:16;11.25;;;1.92;;
56429;SDS011;42332;52.136;20.666;2023-05-10T15:01:41;6.68;;;2.10;;
56429;SDS011;42332;52.136;20.666;2023-05-10T15:04:07;7.43;;;1.98;;